createdAt,value
2022-12-26T00:00:28.012Z,8.50
2022-12-26T00:02:54.777Z,8.40
2022-12-26T00:05:21.498Z,8.40
2022-12-26T00:07:48.100Z,8.40
2022-12-26T00:10:14.773Z,8.50
2022-12-26T00:12:41.354Z,8.40
2022-12-26T00:15:08.426Z,8.40
2022-12-26T00:17:35.232Z,8.40
2022-12-26T00:20:01.843Z,8.40
2022-12-26T00:22:28.532Z,8.30
2022-12-26T00:24:55.168Z,8.40
2022-12-26T00:27:22.196Z,8.40
2022-12-26T00:29:48.804Z,8.50
2022-12-26T00:32:15.384Z,8.50
2022-12-26T00:34:42.040Z,8.60
2022-12-26T00:37:08.651Z,8.60
2022-12-26T00:39:35.219Z,8.60
2022-12-26T00:42:01.795Z,8.60
2022-12-26T00:44:28.388Z,8.50
2022-12-26T00:46:55.048Z,8.50
2022-12-26T00:49:21.729Z,8.40
2022-12-26T00:51:48.335Z,8.40
2022-12-26T00:54:14.953Z,8.30
2022-12-26T00:56:41.513Z,8.30
2022-12-26T00:59:08.189Z,8.30
2022-12-26T01:01:34.944Z,8.30
2022-12-26T01:04:01.623Z,8.20
2022-12-26T01:06:28.298Z,8.20
2022-12-26T01:08:55.034Z,8.10
2022-12-26T01:11:40.276Z,8.10
2022-12-26T01:14:15.553Z,8.00
2022-12-26T01:16:44.489Z,8.00
2022-12-26T01:19:12.823Z,7.90
2022-12-26T01:21:39.593Z,7.80
2022-12-26T01:24:07.422Z,7.70
2022-12-26T01:26:34.047Z,7.70
2022-12-26T01:29:00.624Z,7.70
2022-12-26T01:31:27.578Z,7.60
2022-12-26T01:33:54.197Z,7.60
2022-12-26T01:36:20.801Z,7.60
2022-12-26T01:38:47.409Z,7.50
2022-12-26T01:41:17.794Z,7.40
2022-12-26T01:43:53.611Z,7.40
2022-12-26T01:46:25.137Z,7.40
2022-12-26T01:48:52.694Z,7.40
2022-12-26T01:51:23.762Z,7.40
2022-12-26T01:53:54.615Z,7.40
2022-12-26T01:56:35.051Z,7.50
2022-12-26T01:59:09.587Z,7.60
2022-12-26T02:01:39.868Z,7.60
2022-12-26T02:04:30.491Z,7.60
2022-12-26T02:06:57.490Z,7.60
2022-12-26T02:09:24.308Z,7.70
2022-12-26T02:12:36.139Z,7.60
2022-12-26T02:14:50.393Z,7.60
2022-12-26T02:17:17.534Z,7.50
2022-12-26T02:19:52.497Z,7.60
2022-12-26T02:22:33.814Z,7.50
2022-12-26T02:25:28.472Z,7.40
2022-12-26T02:28:04.236Z,7.50
2022-12-26T02:30:51.037Z,7.50
2022-12-26T02:33:48.233Z,7.40
2022-12-26T02:36:34.255Z,7.40
2022-12-26T02:39:45.625Z,7.40
2022-12-26T02:42:25.213Z,7.40
2022-12-26T02:45:32.398Z,7.40
2022-12-26T02:48:33.358Z,7.60
2022-12-26T02:51:47.079Z,7.60
2022-12-26T02:54:38.585Z,7.70
2022-12-26T02:57:30.639Z,7.70
2022-12-26T03:00:26.305Z,7.80
2022-12-26T03:03:33.342Z,7.80
2022-12-26T03:06:24.986Z,7.80
2022-12-26T03:09:16.517Z,7.80
2022-12-26T03:12:06.398Z,7.80
2022-12-26T03:14:43.998Z,7.80
2022-12-26T03:17:21.838Z,7.80
2022-12-26T03:20:01.169Z,7.80
2022-12-26T03:22:43.563Z,7.80
2022-12-26T03:25:58.996Z,7.90
2022-12-26T03:28:26.242Z,7.90
2022-12-26T03:30:55.480Z,8.00
2022-12-26T03:33:40.733Z,8.00
2022-12-26T03:36:11.323Z,8.00
2022-12-26T03:38:55.414Z,8.00
2022-12-26T03:42:02.524Z,7.90
2022-12-26T03:44:55.099Z,7.90
2022-12-26T03:48:05.399Z,7.80
2022-12-26T03:50:56.561Z,7.90
2022-12-26T03:53:50.189Z,7.80
2022-12-26T03:56:45.644Z,7.70
2022-12-26T03:59:35.140Z,7.70
2022-12-26T04:02:25.189Z,7.70
2022-12-26T04:05:14.195Z,7.60
2022-12-26T04:08:06.182Z,7.60
2022-12-26T04:10:58.607Z,7.60
2022-12-26T04:14:08.080Z,7.60
2022-12-26T04:16:58.984Z,7.50
2022-12-26T04:19:28.450Z,7.60
2022-12-26T04:22:18.339Z,7.70
2022-12-26T04:25:11.816Z,7.70
2022-12-26T04:27:57.138Z,7.60
2022-12-26T04:30:42.586Z,7.70
2022-12-26T04:33:42.019Z,7.60
2022-12-26T04:36:35.070Z,7.60
2022-12-26T04:39:24.116Z,7.60
2022-12-26T04:42:11.537Z,7.50
2022-12-26T04:44:39.035Z,7.50
2022-12-26T04:47:05.642Z,7.40
2022-12-26T04:50:01.263Z,7.40
2022-12-26T04:52:48.741Z,7.40
2022-12-26T04:55:16.009Z,7.30
2022-12-26T04:57:42.691Z,7.30
2022-12-26T05:00:10.436Z,7.30
2022-12-26T05:02:55.916Z,7.30
2022-12-26T05:05:41.188Z,7.40
2022-12-26T05:08:40.100Z,7.30
2022-12-26T05:11:06.729Z,7.30
2022-12-26T05:13:33.312Z,7.30
2022-12-26T05:16:18.693Z,7.30
2022-12-26T05:19:04.055Z,7.20
2022-12-26T05:21:49.954Z,7.30
2022-12-26T05:24:35.591Z,7.30
2022-12-26T05:27:20.814Z,7.30
2022-12-26T05:29:47.857Z,7.30
2022-12-26T05:32:14.496Z,7.20
2022-12-26T05:34:41.085Z,7.20
2022-12-26T05:37:07.727Z,7.20
2022-12-26T05:39:34.367Z,7.20
2022-12-26T05:42:00.998Z,7.20
2022-12-26T05:44:27.558Z,7.20
2022-12-26T05:46:54.157Z,7.20
2022-12-26T05:49:20.782Z,7.20
2022-12-26T05:51:47.455Z,7.20
2022-12-26T05:54:14.190Z,7.20
2022-12-26T05:56:44.299Z,7.20
2022-12-26T05:59:15.722Z,7.20
2022-12-26T06:01:42.372Z,7.30
2022-12-26T06:04:09.034Z,7.30
2022-12-26T06:06:35.619Z,7.30
2022-12-26T06:09:02.204Z,7.40
2022-12-26T06:11:28.898Z,7.40
2022-12-26T06:13:56.161Z,7.40
2022-12-26T06:16:23.461Z,7.40
2022-12-26T06:18:50.167Z,7.30
2022-12-26T06:21:19.051Z,7.30
2022-12-26T06:23:45.912Z,7.30
2022-12-26T06:26:12.866Z,7.40
2022-12-26T06:28:41.031Z,7.60
2022-12-26T06:31:11.330Z,7.70
2022-12-26T06:33:37.985Z,7.80
2022-12-26T06:36:07.704Z,8.00
2022-12-26T06:38:34.541Z,8.20
2022-12-26T06:41:01.496Z,8.20
2022-12-26T06:43:28.106Z,8.30
2022-12-26T06:45:58.783Z,8.30
2022-12-26T06:48:26.135Z,8.30
2022-12-26T06:50:54.296Z,8.30
2022-12-26T06:53:22.075Z,8.30
2022-12-26T06:55:49.105Z,8.30
2022-12-26T06:58:16.579Z,8.30
2022-12-26T07:00:43.362Z,8.30
2022-12-26T07:03:10.687Z,8.40
2022-12-26T07:05:38.603Z,8.40
2022-12-26T07:08:05.440Z,8.50
2022-12-26T07:10:39.505Z,8.50
2022-12-26T07:13:06.168Z,8.40
2022-12-26T07:15:32.815Z,8.40
2022-12-26T07:17:59.440Z,8.30
2022-12-26T07:20:26.042Z,8.20
2022-12-26T07:22:54.651Z,8.10
2022-12-26T07:25:21.314Z,8.00
2022-12-26T07:27:47.951Z,7.80
2022-12-26T07:30:14.644Z,7.80
2022-12-26T07:32:41.236Z,7.70
2022-12-26T07:35:08.273Z,7.60
2022-12-26T07:37:34.940Z,7.60
2022-12-26T07:40:01.553Z,7.60
2022-12-26T07:42:28.150Z,7.70
2022-12-26T07:44:54.786Z,7.80
2022-12-26T07:47:21.410Z,7.80
2022-12-26T07:49:48.062Z,7.80
2022-12-26T07:52:14.759Z,7.80
2022-12-26T07:54:41.367Z,7.90
2022-12-26T07:57:47.625Z,8.00
2022-12-26T07:59:54.594Z,8.00
2022-12-26T08:02:21.653Z,8.10
2022-12-26T08:04:48.422Z,8.20
2022-12-26T08:07:15.112Z,8.30
2022-12-26T08:09:44.609Z,8.40
2022-12-26T08:12:11.487Z,8.50
2022-12-26T08:14:38.189Z,8.50
2022-12-26T08:17:05.081Z,8.60
2022-12-26T08:19:32.142Z,8.60
2022-12-26T08:21:58.904Z,8.80
2022-12-26T08:24:25.514Z,8.80
2022-12-26T08:26:52.148Z,8.80
2022-12-26T08:29:18.816Z,9.00
2022-12-26T08:31:45.412Z,9.10
2022-12-26T08:34:13.323Z,9.10
2022-12-26T08:36:40.310Z,9.20
2022-12-26T08:39:07.059Z,9.40
2022-12-26T08:41:33.676Z,9.50
2022-12-26T08:46:46.929Z,9.70
2022-12-26T08:49:13.612Z,9.70
2022-12-26T08:51:40.419Z,9.90
2022-12-26T08:54:07.100Z,10.00
2022-12-26T08:56:33.752Z,10.20
2022-12-26T08:59:00.370Z,10.30
2022-12-26T09:01:29.446Z,10.40
2022-12-26T09:03:58.656Z,10.60
2022-12-26T09:06:26.199Z,10.80
2022-12-26T09:08:53.929Z,10.80
2022-12-26T09:11:29.243Z,10.90
2022-12-26T09:13:57.804Z,11.00
2022-12-26T09:16:27.035Z,11.10
2022-12-26T09:18:56.407Z,11.20
2022-12-26T09:21:23.995Z,11.30
2022-12-26T09:23:50.708Z,11.40
2022-12-26T09:26:20.875Z,11.50
2022-12-26T09:28:48.071Z,11.70
2022-12-26T09:31:19.658Z,11.80
2022-12-26T09:33:50.040Z,11.90
2022-12-26T09:36:19.569Z,12.10
2022-12-26T09:38:47.775Z,12.20
2022-12-26T09:41:27.440Z,12.30
2022-12-26T09:44:15.988Z,12.30
2022-12-26T09:47:12.633Z,12.40
2022-12-26T09:49:45.269Z,12.40
2022-12-26T09:52:18.388Z,12.50
2022-12-26T09:54:57.200Z,12.50
2022-12-26T09:57:34.020Z,12.60
2022-12-26T10:00:04.921Z,12.60
2022-12-26T10:02:31.778Z,12.60
2022-12-26T10:04:59.205Z,12.70
2022-12-26T10:07:35.089Z,12.70
2022-12-26T10:10:09.882Z,12.80
2022-12-26T10:12:39.391Z,12.80
2022-12-26T10:15:34.439Z,12.80
2022-12-26T10:18:34.272Z,12.80
2022-12-26T10:21:27.435Z,12.90
2022-12-26T10:24:16.678Z,12.90
2022-12-26T10:26:51.217Z,13.00
2022-12-26T10:29:33.524Z,13.00
2022-12-26T10:32:06.582Z,13.10
2022-12-26T10:34:48.117Z,13.20
2022-12-26T10:37:37.439Z,13.30
2022-12-26T10:40:21.438Z,13.40
2022-12-26T10:42:57.178Z,13.40
2022-12-26T10:45:46.500Z,13.50
2022-12-26T10:48:16.084Z,13.60
2022-12-26T10:50:48.369Z,13.60
2022-12-26T10:53:16.921Z,13.70
2022-12-26T10:55:43.816Z,13.80
2022-12-26T10:58:28.023Z,13.90
2022-12-26T11:00:54.627Z,14.00
2022-12-26T11:03:21.950Z,14.10
2022-12-26T11:06:09.631Z,14.10
2022-12-26T11:08:47.699Z,14.10
2022-12-26T11:11:25.600Z,14.10
2022-12-26T11:14:02.150Z,14.10
2022-12-26T11:16:35.600Z,14.20
2022-12-26T11:19:02.722Z,14.10
2022-12-26T11:21:31.996Z,14.20
2022-12-26T11:24:10.801Z,14.30
2022-12-26T11:26:38.253Z,14.30
2022-12-26T11:29:18.639Z,14.20
2022-12-26T11:31:58.858Z,14.20
2022-12-26T11:34:45.907Z,14.20
2022-12-26T11:37:28.675Z,14.10
2022-12-26T11:39:56.067Z,14.00
2022-12-26T11:42:25.352Z,14.00
2022-12-26T11:44:56.270Z,14.00
2022-12-26T11:47:28.825Z,14.00
2022-12-26T11:50:03.976Z,13.90
2022-12-26T11:52:42.866Z,13.90
2022-12-26T11:55:35.493Z,13.80
2022-12-26T11:58:08.301Z,13.80
2022-12-26T12:00:37.880Z,13.70
2022-12-26T12:03:14.664Z,13.70
2022-12-26T12:05:54.654Z,13.60
2022-12-26T12:08:33.384Z,13.60
2022-12-26T12:11:11.529Z,13.50
2022-12-26T12:13:49.232Z,13.40
2022-12-26T12:16:46.136Z,13.30
2022-12-26T12:19:37.679Z,13.20
2022-12-26T12:22:46.700Z,12.90
2022-12-26T12:25:35.657Z,12.70
2022-12-26T12:28:16.571Z,12.40
2022-12-26T12:31:02.305Z,12.00
2022-12-26T12:33:42.493Z,11.50
2022-12-26T12:36:28.950Z,11.10
2022-12-26T12:39:05.581Z,10.80
2022-12-26T12:41:56.203Z,10.60
2022-12-26T12:44:57.124Z,10.40
2022-12-26T12:47:29.354Z,10.30
2022-12-26T12:50:25.869Z,10.20
2022-12-26T12:53:00.725Z,10.10
2022-12-26T12:55:43.744Z,10.10
2022-12-26T12:58:47.047Z,10.10
2022-12-26T13:01:22.617Z,10.10
2022-12-26T13:04:04.554Z,10.00
2022-12-26T13:06:42.012Z,10.00
2022-12-26T13:09:22.924Z,10.00
2022-12-26T13:11:56.542Z,9.90
2022-12-26T13:14:40.804Z,9.80
2022-12-26T13:17:12.996Z,9.70
2022-12-26T13:19:51.365Z,9.60
2022-12-26T13:22:26.178Z,9.60
2022-12-26T13:24:58.957Z,9.50
2022-12-26T13:27:36.913Z,9.40
2022-12-26T13:30:12.612Z,9.40
2022-12-26T13:32:43.365Z,9.30
2022-12-26T13:35:31.559Z,9.30
2022-12-26T13:37:58.727Z,9.30
2022-12-26T13:40:29.070Z,9.30
2022-12-26T13:43:25.982Z,9.30
2022-12-26T13:45:57.834Z,9.30
2022-12-26T14:09:42.530Z,9.20
2022-12-26T14:12:28.164Z,9.10
2022-12-26T14:49:26.423Z,9.00
2022-12-26T14:52:15.863Z,8.70
2022-12-26T14:54:50.757Z,8.70
2022-12-26T14:57:46.894Z,8.70
2022-12-26T15:00:22.699Z,8.70
2022-12-26T15:03:18.946Z,8.70
2022-12-26T15:05:48.182Z,8.70
2022-12-26T16:29:32.096Z,8.60
2022-12-26T16:47:11.719Z,8.10
2022-12-26T16:49:41.458Z,8.10
2022-12-26T18:02:43.680Z,8.00
2022-12-26T18:05:10.718Z,8.10
2022-12-26T18:07:37.744Z,8.10
2022-12-26T18:10:05.399Z,8.10
2022-12-26T21:23:40.749Z,8.00
2022-12-26T21:28:35.392Z,6.20
2022-12-26T21:31:02.652Z,6.00
2022-12-26T21:33:30.306Z,6.00
2022-12-26T21:35:57.358Z,6.00
2022-12-26T21:38:27.791Z,6.00
2022-12-26T21:40:54.480Z,6.00
2022-12-26T21:43:22.310Z,6.00
2022-12-26T21:45:48.915Z,6.00
2022-12-26T21:48:15.890Z,6.00
2022-12-26T21:50:45.659Z,6.00
2022-12-26T21:53:12.268Z,6.10
2022-12-26T21:55:38.876Z,6.10
2022-12-26T21:58:07.424Z,6.10
2022-12-26T22:00:35.390Z,6.10
2022-12-26T22:03:21.371Z,6.20
2022-12-26T22:05:48.033Z,6.20
2022-12-26T22:08:15.135Z,6.20
2022-12-26T22:11:05.172Z,6.30
2022-12-26T22:13:42.048Z,6.30
2022-12-26T22:16:11.099Z,6.40
2022-12-26T22:18:45.229Z,6.50
2022-12-26T22:21:13.454Z,6.50
2022-12-26T22:23:41.065Z,6.60
2022-12-26T22:26:09.239Z,6.50
2022-12-26T22:28:35.993Z,6.50
2022-12-26T22:31:02.808Z,6.60
2022-12-26T22:33:29.793Z,6.60
2022-12-26T22:36:04.729Z,6.70
2022-12-26T22:38:31.370Z,6.70
2022-12-26T22:40:59.242Z,6.70
2022-12-26T22:43:26.655Z,6.70
2022-12-26T22:45:54.110Z,6.70
2022-12-26T22:48:22.019Z,6.70
2022-12-26T22:50:52.946Z,6.80
2022-12-26T22:53:21.952Z,6.80
2022-12-26T22:55:51.095Z,6.80
2022-12-26T22:58:19.122Z,6.80
2022-12-26T23:00:46.285Z,6.80
2022-12-26T23:03:14.147Z,6.80
2022-12-26T23:05:41.516Z,6.80
2022-12-26T23:08:08.653Z,6.80
2022-12-26T23:10:35.639Z,6.80
2022-12-26T23:13:02.765Z,6.70
2022-12-26T23:15:29.805Z,6.70
2022-12-26T23:18:23.978Z,6.70
2022-12-26T23:21:10.930Z,6.70
2022-12-26T23:23:37.821Z,6.70
2022-12-26T23:26:04.448Z,6.70
2022-12-26T23:28:49.635Z,6.70
2022-12-26T23:31:16.331Z,6.70
2022-12-26T23:33:42.991Z,6.70
2022-12-26T23:36:09.712Z,6.70
2022-12-26T23:38:36.389Z,6.70
2022-12-26T23:41:03.046Z,6.70
2022-12-26T23:43:29.934Z,6.70
2022-12-26T23:45:56.495Z,6.70
2022-12-26T23:48:23.124Z,6.70
2022-12-26T23:50:49.704Z,6.70
2022-12-26T23:53:16.361Z,6.70
2022-12-26T23:55:42.995Z,6.70
2022-12-26T23:58:09.881Z,6.80
